Time;durP1;ratioP1;P1;durP2;ratioP2;P2;SDS_P1;SDS_P2;PMS_P1;PMS_P2;Temp;Humidity;BMP_temperature;BMP_pressure;BME280_temperature;BME280_humidity;BME280_pressure;Samples;Min_cycle;Max_cycle;Signal;HPM_P1;HPM_P2
2023/05/15 00:00:24;;;;;;;23.88;16.88;;;12.40;99.90;;;;;;5090203;28;20134;-59
2023/05/15 00:02:49;;;;;;;26.20;17.95;;;12.40;99.90;;;;;;5088030;28;20043;-61
2023/05/15 00:05:15;;;;;;;29.23;19.15;;;12.40;99.90;;;;;;5056273;28;20055;-66
2023/05/15 00:07:41;;;;;;;25.52;18.27;;;12.40;99.90;;;;;;5090151;27;20047;-67
2023/05/15 00:10:07;;;;;;;22.67;17.25;;;12.40;99.90;;;;;;5110145;27;20435;-64
2023/05/15 00:12:33;;;;;;;29.73;20.77;;;12.50;99.90;;;;;;5110685;27;20040;-61
2023/05/15 00:14:59;;;;;;;31.80;21.20;;;12.50;99.90;;;;;;5093445;27;20043;-60
2023/05/15 00:17:25;;;;;;;34.05;23.73;;;12.40;99.90;;;;;;5092641;27;20043;-66
2023/05/15 00:19:56;;;;;;;31.73;22.00;;;12.30;99.90;;;;;;5093813;27;20043;-65
2023/05/15 00:22:22;;;;;;;34.65;21.65;;;12.20;99.90;;;;;;5101453;27;20051;-60
2023/05/15 00:24:48;;;;;;;32.97;21.77;;;12.10;99.90;;;;;;5110685;27;20083;-59
2023/05/15 00:27:13;;;;;;;32.38;22.05;;;12.00;99.90;;;;;;5109449;27;20372;-60
2023/05/15 00:29:39;;;;;;;35.38;21.00;;;11.90;99.90;;;;;;5138977;27;20524;-63
2023/05/15 00:32:05;;;;;;;28.92;20.92;;;11.90;99.90;;;;;;5094718;28;20074;-63
2023/05/15 00:34:31;;;;;;;41.63;22.65;;;11.80;99.90;;;;;;5103582;27;20480;-65
2023/05/15 00:36:56;;;;;;;29.67;20.48;;;11.80;99.90;;;;;;5109523;27;20039;-61
2023/05/15 00:39:22;;;;;;;28.80;20.85;;;11.80;99.90;;;;;;5128258;27;20065;-60
2023/05/15 00:41:50;;;;;;;30.63;21.05;;;11.70;99.90;;;;;;5081177;27;20043;-64
2023/05/15 00:44:17;;;;;;;30.60;21.27;;;11.70;99.90;;;;;;5109454;27;20548;-58
2023/05/15 00:46:45;;;;;;;27.88;18.55;;;11.60;99.90;;;;;;5128531;27;20086;-60
2023/05/15 00:49:13;;;;;;;28.85;18.98;;;11.60;99.90;;;;;;5109836;27;20051;-63
2023/05/15 00:51:41;;;;;;;31.38;19.42;;;11.60;99.90;;;;;;5084877;28;20047;-59
2023/05/15 00:54:07;;;;;;;26.08;19.90;;;11.60;99.90;;;;;;5081874;27;20752;-62
2023/05/15 00:56:33;;;;;;;30.35;20.50;;;11.50;99.90;;;;;;5109856;27;20046;-59
2023/05/15 00:59:01;;;;;;;28.83;20.08;;;11.50;99.90;;;;;;5103635;27;20047;-60
2023/05/15 01:01:32;;;;;;;32.00;20.63;;;11.40;99.90;;;;;;5086501;28;20059;-62
2023/05/15 01:03:58;;;;;;;28.73;20.15;;;11.40;99.90;;;;;;5125143;27;20088;-61
2023/05/15 01:06:24;;;;;;;31.60;19.85;;;11.30;99.90;;;;;;5109264;27;20066;-63
2023/05/15 01:08:52;;;;;;;29.17;21.25;;;11.30;99.90;;;;;;5073064;27;20047;-62
2023/05/15 01:11:20;;;;;;;29.38;20.17;;;11.30;99.90;;;;;;5087385;27;20186;-59
2023/05/15 01:13:45;;;;;;;30.92;20.67;;;11.20;99.90;;;;;;5109825;27;20047;-59
2023/05/15 01:16:11;;;;;;;30.92;20.50;;;11.20;99.90;;;;;;5092221;27;20080;-65
2023/05/15 01:18:37;;;;;;;31.70;21.23;;;11.10;99.90;;;;;;5092332;27;20043;-66
2023/05/15 01:21:09;;;;;;;32.65;21.25;;;11.20;99.90;;;;;;5108760;27;20046;-62
2023/05/15 01:23:50;;;;;;;37.20;24.05;;;11.10;99.90;;;;;;5117727;27;20047;-60
2023/05/15 01:26:34;;;;;;;39.30;24.13;;;11.10;99.90;;;;;;5123107;27;20050;-65
2023/05/15 01:29:38;;;;;;;36.55;24.00;;;11.20;99.90;;;;;;5091648;27;20032;-64
2023/05/15 01:32:10;;;;;;;39.70;25.05;;;11.20;99.90;;;;;;5096989;28;20039;-59
2023/05/15 01:35:09;;;;;;;35.75;23.83;;;11.10;99.90;;;;;;5105924;27;20090;-60
2023/05/15 01:37:41;;;;;;;43.88;26.20;;;11.10;99.90;;;;;;5053693;28;20598;-58
2023/05/15 01:40:11;;;;;;;39.85;25.13;;;11.10;99.90;;;;;;5063957;27;20048;-65
2023/05/15 01:42:40;;;;;;;44.72;27.00;;;11.10;99.90;;;;;;5109192;27;20043;-58
2023/05/15 01:45:11;;;;;;;;;;;11.10;99.90;;;;;;5092512;27;20504;-61
2023/05/15 01:47:38;;;;;;;48.25;27.35;;;11.00;99.90;;;;;;5100815;28;20353;-59
2023/05/15 01:50:07;;;;;;;47.78;27.63;;;11.00;99.90;;;;;;5125248;27;20126;-60
2023/05/15 01:52:39;;;;;;;44.58;28.77;;;11.00;99.90;;;;;;5127240;27;20578;-59
2023/05/15 01:55:07;;;;;;;40.45;28.05;;;11.00;99.90;;;;;;5127444;27;20035;-59
2023/05/15 01:57:35;;;;;;;45.15;27.38;;;11.00;99.90;;;;;;5105537;28;20043;-62
2023/05/15 02:00:02;;;;;;;44.50;26.42;;;10.90;99.90;;;;;;5139012;27;20613;-60
2023/05/15 02:02:29;;;;;;;43.08;27.58;;;10.90;99.90;;;;;;5101415;28;20044;-64
2023/05/15 02:04:56;;;;;;;50.60;28.60;;;11.00;99.90;;;;;;5108653;28;20047;-63
2023/05/15 02:07:22;;;;;;;44.35;28.73;;;11.00;99.90;;;;;;5079700;28;20149;-64
2023/05/15 02:09:50;;;;;;;46.65;28.17;;;11.00;99.90;;;;;;5108313;27;20051;-65
2023/05/15 02:12:16;;;;;;;49.20;29.20;;;10.90;99.90;;;;;;5111988;27;20078;-60
2023/05/15 02:14:43;;;;;;;43.85;26.40;;;10.90;99.90;;;;;;5111772;27;20054;-65
2023/05/15 02:17:10;;;;;;;47.90;28.67;;;10.90;99.90;;;;;;5081965;28;20402;-67
2023/05/15 02:19:36;;;;;;;44.55;27.20;;;10.90;99.90;;;;;;5117366;27;20047;-60
2023/05/15 02:22:01;;;;;;;42.05;27.52;;;10.90;99.90;;;;;;5111820;27;20051;-65
2023/05/15 02:24:27;;;;;;;41.95;26.27;;;10.90;99.90;;;;;;5094880;27;20458;-59
2023/05/15 02:26:58;;;;;;;41.42;25.35;;;10.90;99.90;;;;;;5111468;27;20050;-62
2023/05/15 02:29:35;;;;;;;50.67;26.20;;;10.90;99.90;;;;;;5108960;27;20051;-65
2023/05/15 02:32:15;;;;;;;40.42;25.75;;;10.90;99.90;;;;;;5092639;27;20055;-61
2023/05/15 02:34:51;;;;;;;;;;;10.90;99.90;;;;;;5076829;28;20050;-64
2023/05/15 02:37:23;;;;;;;39.17;24.63;;;10.90;99.90;;;;;;5111897;27;19919;-58
2023/05/15 02:39:53;;;;;;;43.05;24.70;;;10.80;99.90;;;;;;5110067;27;20130;-67
2023/05/15 02:42:20;;;;;;;38.80;24.08;;;10.80;99.90;;;;;;5111634;27;20054;-64
2023/05/15 02:44:48;;;;;;;35.55;23.60;;;10.80;99.90;;;;;;5094205;27;20095;-66
2023/05/15 02:47:14;;;;;;;38.08;23.77;;;10.80;99.90;;;;;;5111828;27;20875;-61
2023/05/15 02:49:40;;;;;;;35.47;23.23;;;10.80;99.90;;;;;;5108348;27;20135;-65
2023/05/15 02:52:06;;;;;;;31.88;21.90;;;10.80;99.90;;;;;;5109397;28;20038;-68
2023/05/15 02:54:32;;;;;;;34.05;22.00;;;10.70;99.90;;;;;;5110834;27;20438;-64
2023/05/15 02:56:58;;;;;;;32.80;21.70;;;10.80;99.90;;;;;;5129481;27;20035;-59
2023/05/15 02:59:24;;;;;;;32.75;21.65;;;10.70;99.90;;;;;;5094282;27;20130;-59
2023/05/15 03:01:49;;;;;;;40.17;22.00;;;10.70;99.90;;;;;;5100335;28;20031;-60
2023/05/15 03:04:15;;;;;;;34.58;22.73;;;10.70;99.90;;;;;;5094538;27;20051;-67
2023/05/15 03:06:41;;;;;;;33.47;22.42;;;10.60;99.90;;;;;;5110269;27;20061;-63
2023/05/15 03:09:07;;;;;;;35.92;23.17;;;10.60;99.90;;;;;;5110631;27;20043;-60
2023/05/15 03:11:33;;;;;;;39.78;23.00;;;10.60;99.90;;;;;;5108053;27;20058;-60
2023/05/15 03:13:59;;;;;;;49.67;20.58;;;10.60;99.90;;;;;;5109687;27;20131;-62
2023/05/15 03:16:25;;;;;;;47.03;20.13;;;10.60;99.90;;;;;;5111181;27;20415;-62
2023/05/15 03:18:51;;;;;;;39.80;18.15;;;10.60;99.90;;;;;;5110677;27;20039;-58
2023/05/15 03:21:18;;;;;;;39.05;18.95;;;10.50;99.90;;;;;;5093226;27;20381;-60
2023/05/15 03:23:43;;;;;;;39.42;17.67;;;10.40;99.90;;;;;;5110318;27;20096;-60
2023/05/15 03:26:10;;;;;;;75.15;20.45;;;10.40;99.90;;;;;;5093605;27;20438;-66
2023/05/15 03:28:37;;;;;;;68.55;18.02;;;10.40;99.90;;;;;;5110713;27;20408;-66
2023/05/15 03:31:07;;;;;;;69.00;20.63;;;10.40;99.90;;;;;;5107188;27;20070;-64
2023/05/15 03:33:33;;;;;;;40.00;22.33;;;10.30;99.90;;;;;;5095736;28;20508;-60
2023/05/15 03:35:59;;;;;;;45.83;18.67;;;10.30;99.90;;;;;;5100629;28;20050;-62
2023/05/15 03:38:26;;;;;;;71.35;23.40;;;10.40;99.90;;;;;;5075717;28;20048;-69
2023/05/15 03:40:52;;;;;;;63.05;23.05;;;10.30;99.90;;;;;;5106757;28;20067;-59
2023/05/15 03:43:17;;;;;;;53.88;25.80;;;10.30;99.90;;;;;;5085433;27;20082;-64
2023/05/15 03:45:43;;;;;;;51.28;24.08;;;10.30;99.90;;;;;;5109999;27;20162;-58
2023/05/15 03:48:09;;;;;;;38.15;23.77;;;10.40;99.90;;;;;;5107944;27;20062;-58
2023/05/15 03:50:35;;;;;;;46.35;26.10;;;10.40;99.90;;;;;;5080811;27;20047;-63
2023/05/15 03:53:01;;;;;;;44.15;24.40;;;10.40;99.90;;;;;;5104338;28;20035;-68
2023/05/15 03:55:28;;;;;;;41.22;25.77;;;10.50;99.90;;;;;;5093223;27;20130;-62
2023/05/15 03:57:54;;;;;;;41.78;25.20;;;10.50;99.90;;;;;;5092702;27;20058;-65
2023/05/15 04:00:20;;;;;;;40.60;25.13;;;10.60;99.90;;;;;;5110331;27;20043;-65
2023/05/15 04:02:47;;;;;;;43.08;25.13;;;10.60;99.90;;;;;;5102917;27;20055;-62
2023/05/15 04:05:13;;;;;;;41.90;25.60;;;10.60;99.90;;;;;;5098685;28;20490;-61
2023/05/15 04:07:38;;;;;;;41.63;26.98;;;10.60;99.90;;;;;;5108987;27;20134;-68
2023/05/15 04:10:05;;;;;;;42.88;26.35;;;10.60;99.90;;;;;;5092437;27;20501;-62
2023/05/15 04:12:32;;;;;;;50.03;28.67;;;10.60;99.90;;;;;;5109827;27;20363;-61
2023/05/15 04:15:18;;;;;;;45.70;26.63;;;10.50;99.90;;;;;;5107463;27;20047;-59
2023/05/15 04:17:45;;;;;;;44.35;26.02;;;10.50;99.90;;;;;;5107281;28;20054;-61
2023/05/15 04:20:14;;;;;;;46.22;24.30;;;10.50;99.90;;;;;;5089206;28;20055;-63
2023/05/15 04:22:40;;;;;;;42.67;24.05;;;10.40;99.90;;;;;;5092631;28;20046;-60
2023/05/15 04:25:07;;;;;;;41.85;21.58;;;10.40;99.90;;;;;;5089285;28;20048;-60
2023/05/15 04:27:32;;;;;;;42.90;20.40;;;10.30;99.90;;;;;;5087969;28;20055;-59
2023/05/15 04:29:59;;;;;;;33.42;19.85;;;10.30;99.90;;;;;;5089161;28;20246;-64
2023/05/15 04:32:26;;;;;;;36.15;19.50;;;10.30;99.90;;;;;;5088884;27;20123;-61
2023/05/15 04:34:52;;;;;;;32.80;19.65;;;10.30;99.90;;;;;;5093473;28;20326;-60
2023/05/15 04:37:18;;;;;;;38.13;20.83;;;10.20;99.90;;;;;;5105058;28;20044;-59
2023/05/15 04:39:44;;;;;;;38.38;21.60;;;10.20;99.90;;;;;;5071316;28;20118;-59
2023/05/15 04:42:10;;;;;;;34.65;20.08;;;10.20;99.90;;;;;;5088683;28;20035;-61
2023/05/15 04:44:36;;;;;;;31.70;20.13;;;10.20;99.90;;;;;;5084241;27;20104;-58
2023/05/15 04:47:01;;;;;;;32.85;19.08;;;10.20;99.90;;;;;;5107370;28;20133;-62
2023/05/15 04:49:27;;;;;;;26.77;18.20;;;10.20;99.90;;;;;;5087998;28;20048;-68
2023/05/15 04:51:53;;;;;;;32.80;20.05;;;10.20;99.90;;;;;;5088923;28;20043;-58
2023/05/15 04:54:19;;;;;;;28.38;18.17;;;10.20;99.90;;;;;;5082759;27;20508;-66
2023/05/15 04:56:45;;;;;;;27.20;18.00;;;10.20;99.90;;;;;;5089332;28;20088;-65
2023/05/15 04:59:12;;;;;;;26.70;16.98;;;10.10;99.90;;;;;;5106714;28;20051;-58
2023/05/15 05:01:38;;;;;;;29.70;17.52;;;10.10;99.90;;;;;;5106086;28;20085;-62
2023/05/15 05:04:04;;;;;;;21.50;15.02;;;10.10;99.90;;;;;;5088188;28;20399;-64
2023/05/15 05:06:29;;;;;;;22.30;16.10;;;10.20;99.90;;;;;;5082484;27;20055;-66
2023/05/15 05:08:56;;;;;;;21.15;15.10;;;10.10;99.90;;;;;;5087905;28;20615;-66
2023/05/15 05:11:22;;;;;;;20.27;13.98;;;10.10;99.90;;;;;;5088013;28;20202;-59
2023/05/15 05:13:48;;;;;;;20.45;12.98;;;10.20;99.90;;;;;;5115514;27;20627;-63
2023/05/15 05:16:14;;;;;;;16.05;11.10;;;10.20;99.90;;;;;;5106564;27;20047;-61
2023/05/15 05:18:40;;;;;;;14.98;11.18;;;10.10;99.90;;;;;;5095815;28;20035;-60
2023/05/15 05:21:05;;;;;;;14.93;11.60;;;10.10;99.90;;;;;;5071474;28;20537;-66
2023/05/15 05:23:31;;;;;;;16.55;11.32;;;10.10;99.90;;;;;;5105087;28;20541;-64
2023/05/15 05:25:58;;;;;;;13.15;9.43;;;10.10;99.90;;;;;;5104671;28;20455;-59
2023/05/15 05:28:25;;;;;;;11.35;9.68;;;10.10;99.90;;;;;;5104784;28;20074;-65
2023/05/15 05:30:50;;;;;;;13.57;9.55;;;10.20;99.90;;;;;;5104796;28;20109;-66
2023/05/15 05:33:16;;;;;;;14.82;9.38;;;10.30;99.90;;;;;;5103876;28;20440;-60
2023/05/15 05:35:42;;;;;;;14.55;9.48;;;10.20;99.90;;;;;;5104810;28;20524;-60
2023/05/15 05:38:08;;;;;;;11.57;8.05;;;10.30;99.90;;;;;;5097346;28;20461;-63
2023/05/15 05:40:34;;;;;;;11.18;8.30;;;10.30;99.90;;;;;;5106237;28;20070;-60
2023/05/15 05:43:00;;;;;;;10.50;6.97;;;10.30;99.90;;;;;;5104535;28;20054;-62
2023/05/15 05:45:26;;;;;;;8.02;7.22;;;10.30;99.90;;;;;;5103386;28;20489;-66
2023/05/15 05:47:53;;;;;;;9.05;6.80;;;10.30;99.90;;;;;;5104051;28;20071;-61
2023/05/15 05:50:19;;;;;;;7.03;6.22;;;10.40;99.90;;;;;;5091092;28;20051;-62
2023/05/15 05:52:45;;;;;;;8.15;6.53;;;10.40;99.90;;;;;;5085424;27;20127;-62
2023/05/15 05:55:10;;;;;;;11.52;7.80;;;10.40;99.90;;;;;;5107833;27;20090;-65
2023/05/15 05:57:36;;;;;;;9.10;7.75;;;10.50;99.90;;;;;;5103747;28;20141;-65
2023/05/15 06:00:05;;;;;;;7.13;6.43;;;10.60;99.90;;;;;;5090996;28;20287;-66
2023/05/15 06:02:31;;;;;;;8.40;6.97;;;10.70;99.90;;;;;;5077380;28;20130;-63
2023/05/15 06:04:57;;;;;;;10.30;7.15;;;10.80;99.90;;;;;;5087662;28;20588;-66
2023/05/15 06:07:22;;;;;;;9.02;7.00;;;10.80;99.90;;;;;;5120481;28;20136;-63
2023/05/15 06:09:48;;;;;;;9.77;7.60;;;10.90;99.90;;;;;;5092216;28;20050;-59
2023/05/15 06:12:14;;;;;;;7.82;6.88;;;10.90;99.90;;;;;;5088655;28;20348;-61
2023/05/15 06:14:40;;;;;;;8.88;7.68;;;10.90;99.90;;;;;;5091042;28;20042;-67
2023/05/15 06:17:05;;;;;;;10.57;7.63;;;10.90;99.90;;;;;;5086522;28;20375;-59
2023/05/15 06:19:31;;;;;;;7.65;6.22;;;10.90;99.90;;;;;;5089191;28;20040;-63
2023/05/15 06:21:57;;;;;;;9.80;7.22;;;10.80;99.90;;;;;;5070454;28;20127;-70
2023/05/15 06:24:23;;;;;;;7.63;6.82;;;10.80;99.90;;;;;;5120686;28;20554;-64
2023/05/15 06:26:48;;;;;;;7.93;7.10;;;10.90;99.90;;;;;;5121547;28;20050;-58
2023/05/15 06:29:14;;;;;;;10.15;7.32;;;10.90;99.90;;;;;;5120805;28;20474;-63
2023/05/15 06:31:40;;;;;;;7.97;6.22;;;11.00;99.90;;;;;;5071322;28;20040;-62
2023/05/15 06:34:06;;;;;;;11.20;7.22;;;11.10;99.90;;;;;;5086502;28;20118;-65
2023/05/15 06:36:31;;;;;;;7.22;5.78;;;11.10;99.90;;;;;;5121084;28;20052;-62
2023/05/15 06:38:57;;;;;;;8.27;6.07;;;11.20;99.90;;;;;;5120843;28;20054;-60
2023/05/15 06:41:23;;;;;;;7.63;6.28;;;11.40;99.90;;;;;;5104974;28;20074;-65
2023/05/15 06:43:49;;;;;;;8.13;5.43;;;11.50;99.90;;;;;;5121033;28;20043;-69
2023/05/15 06:46:17;;;;;;;14.52;6.50;;;11.50;99.90;;;;;;5104763;28;20051;-62
2023/05/15 06:48:43;;;;;;;7.13;6.18;;;11.70;99.90;;;;;;5121503;28;20048;-61
2023/05/15 06:51:10;;;;;;;7.22;5.93;;;11.80;99.90;;;;;;5084465;28;20060;-65
2023/05/15 06:53:35;;;;;;;7.07;5.65;;;11.90;99.90;;;;;;5087219;28;20121;-66
2023/05/15 06:56:01;;;;;;;6.35;5.57;;;12.00;99.90;;;;;;5095910;28;20042;-61
2023/05/15 06:58:27;;;;;;;6.78;5.53;;;12.00;99.90;;;;;;5090234;28;20126;-67
2023/05/15 07:00:53;;;;;;;7.57;6.47;;;12.00;99.90;;;;;;5124496;27;20413;-61
2023/05/15 07:03:18;;;;;;;6.75;5.68;;;12.00;99.90;;;;;;5108515;28;20445;-64
2023/05/15 07:05:44;;;;;;;6.70;5.82;;;12.00;99.90;;;;;;5078996;28;20119;-66
2023/05/15 07:08:10;;;;;;;6.25;5.65;;;12.00;99.90;;;;;;5089134;28;20055;-64
2023/05/15 07:10:36;;;;;;;8.55;6.72;;;12.10;99.90;;;;;;5103769;28;20035;-65
2023/05/15 07:13:02;;;;;;;8.80;6.93;;;12.10;99.90;;;;;;5101495;28;20500;-59
2023/05/15 07:15:27;;;;;;;10.23;6.65;;;12.20;99.90;;;;;;5123189;27;20078;-59
2023/05/15 07:17:54;;;;;;;8.30;6.38;;;12.20;99.90;;;;;;5072739;28;20032;-70
2023/05/15 07:20:19;;;;;;;5.93;5.32;;;12.50;99.90;;;;;;5117451;27;20040;-60
2023/05/15 07:22:45;;;;;;;8.77;5.05;;;12.70;99.90;;;;;;5108370;28;20411;-61
2023/05/15 07:25:11;;;;;;;7.07;4.65;;;12.80;99.90;;;;;;5119860;27;20070;-63
2023/05/15 07:27:36;;;;;;;8.52;4.50;;;12.70;99.90;;;;;;5079904;28;20149;-59
2023/05/15 07:30:03;;;;;;;6.57;4.78;;;12.70;99.90;;;;;;5102520;28;20043;-59
2023/05/15 07:32:29;;;;;;;11.27;5.03;;;13.10;99.90;;;;;;5043436;28;20130;-67
2023/05/15 07:34:55;;;;;;;5.90;4.13;;;13.30;99.90;;;;;;5073981;28;20052;-70
2023/05/15 07:37:24;;;;;;;5.43;4.03;;;13.60;99.90;;;;;;5073478;28;20043;-65
2023/05/15 07:39:50;;;;;;;11.10;4.25;;;13.70;99.90;;;;;;5089246;28;20027;-59
2023/05/15 07:42:16;;;;;;;4.10;3.80;;;13.80;99.90;;;;;;5106118;28;20485;-64
2023/05/15 07:44:42;;;;;;;4.00;3.70;;;14.00;99.90;;;;;;5072219;28;20774;-67
2023/05/15 07:47:07;;;;;;;6.70;3.65;;;14.10;99.90;;;;;;5071681;28;20059;-65
2023/05/15 07:49:33;;;;;;;5.65;4.30;;;14.00;99.90;;;;;;5073048;28;20066;-61
2023/05/15 07:52:00;;;;;;;5.13;3.83;;;14.20;99.90;;;;;;5088782;28;20057;-66
2023/05/15 07:54:26;;;;;;;5.65;3.53;;;14.10;99.90;;;;;;5106624;28;20178;-64
2023/05/15 07:56:53;;;;;;;4.65;3.58;;;14.20;99.90;;;;;;5108945;27;20452;-62
2023/05/15 07:59:20;;;;;;;6.00;3.70;;;14.20;99.90;;;;;;5070722;28;20051;-63
2023/05/15 08:01:46;;;;;;;3.58;3.30;;;14.20;99.90;;;;;;5089896;28;20179;-61
2023/05/15 08:04:11;;;;;;;4.13;3.22;;;14.10;99.90;;;;;;5071833;28;20635;-62
2023/05/15 08:06:37;;;;;;;3.40;3.10;;;14.30;99.90;;;;;;5122932;27;20073;-68
2023/05/15 08:09:03;;;;;;;4.22;2.78;;;14.40;99.90;;;;;;5071702;28;20051;-65
2023/05/15 08:11:29;;;;;;;3.90;3.08;;;14.30;99.90;;;;;;5108061;28;20047;-66
2023/05/15 08:13:55;;;;;;;4.25;2.90;;;14.30;99.90;;;;;;5107800;28;20050;-67
2023/05/15 08:16:21;;;;;;;4.10;3.08;;;14.10;99.90;;;;;;5088739;28;20055;-66
2023/05/15 08:18:47;;;;;;;3.33;2.78;;;14.20;99.90;;;;;;5073525;28;20046;-60
2023/05/15 08:21:12;;;;;;;4.90;2.50;;;14.30;99.90;;;;;;5106641;28;20179;-59
2023/05/15 08:23:38;;;;;;;5.70;3.03;;;14.30;99.90;;;;;;5088827;28;20050;-60
2023/05/15 08:26:04;;;;;;;7.70;2.80;;;14.50;99.90;;;;;;5088274;28;20098;-62
2023/05/15 08:28:30;;;;;;;2.85;2.53;;;14.70;99.90;;;;;;5058715;27;20562;-63
2023/05/15 08:30:55;;;;;;;2.65;2.05;;;14.90;99.90;;;;;;5107340;27;20048;-65
2023/05/15 08:33:21;;;;;;;3.70;2.70;;;14.90;94.80;;;;;;5104804;28;20067;-59
2023/05/15 08:35:47;;;;;;;2.72;2.30;;;15.00;99.90;;;;;;5115745;27;20098;-61
2023/05/15 08:38:13;;;;;;;2.60;2.40;;;15.00;93.10;;;;;;5105636;28;20449;-60
2023/05/15 08:40:40;;;;;;;4.82;2.60;;;14.90;98.40;;;;;;5089739;28;20470;-67
2023/05/15 08:43:14;;;;;;;2.63;2.25;;;15.00;97.80;;;;;;5105840;28;20127;-61
2023/05/15 08:45:41;;;;;;;10.45;2.55;;;14.90;98.30;;;;;;5072184;28;20054;-61
2023/05/15 08:48:12;;;;;;;9.18;2.10;;;14.90;99.90;;;;;;5086882;28;20478;-59
2023/05/15 08:50:39;;;;;;;2.03;1.92;;;15.00;99.90;;;;;;5084300;28;20365;-63
2023/05/15 08:53:07;;;;;;;4.03;2.50;;;15.10;98.60;;;;;;5072298;28;20412;-69
2023/05/15 08:55:33;;;;;;;3.00;2.30;;;15.10;99.90;;;;;;5071241;28;20051;-66
2023/05/15 08:57:59;;;;;;;5.72;2.20;;;15.30;97.40;;;;;;5107499;28;20748;-64
2023/05/15 09:00:26;;;;;;;3.25;2.35;;;15.30;99.90;;;;;;5087285;28;20035;-63
2023/05/15 09:02:53;;;;;;;5.63;2.10;;;15.30;94.40;;;;;;5108378;27;20043;-63
2023/05/15 09:05:19;;;;;;;3.85;2.00;;;15.00;95.10;;;;;;5087799;28;20073;-59
2023/05/15 09:07:46;;;;;;;1.95;1.85;;;15.00;99.90;;;;;;5071381;28;20057;-60
2023/05/15 09:10:13;;;;;;;1.95;1.48;;;15.10;99.90;;;;;;5098475;27;20082;-59
2023/05/15 09:12:46;;;;;;;5.50;1.80;;;15.20;97.00;;;;;;5085468;27;20396;-62
2023/05/15 09:15:23;;;;;;;3.60;1.73;;;15.10;99.40;;;;;;5093930;27;20043;-65
2023/05/15 09:17:50;;;;;;;1.92;1.58;;;15.10;99.90;;;;;;5091016;27;20063;-66
2023/05/15 09:20:33;;;;;;;4.45;1.85;;;15.10;94.30;;;;;;5091807;27;20079;-58
2023/05/15 09:23:02;;;;;;;1.60;1.50;;;15.10;98.30;;;;;;5102840;27;20409;-65
2023/05/15 09:25:43;;;;;;;3.13;1.70;;;15.10;96.70;;;;;;5089126;27;20055;-59
2023/05/15 09:28:32;;;;;;;4.30;1.80;;;15.20;96.60;;;;;;5107364;27;20063;-63
2023/05/15 09:31:17;;;;;;;3.75;1.80;;;15.10;94.70;;;;;;5086638;28;20051;-61
2023/05/15 09:33:43;;;;;;;9.07;1.83;;;14.80;98.90;;;;;;5081526;28;20058;-60
2023/05/15 09:36:20;;;;;;;6.22;1.83;;;14.90;99.50;;;;;;5090166;28;20043;-67
2023/05/15 09:38:48;;;;;;;3.55;1.75;;;15.10;94.70;;;;;;5087248;28;20028;-60
2023/05/15 09:41:13;;;;;;;4.35;1.73;;;15.10;95.20;;;;;;5061208;28;20054;-65
2023/05/15 09:43:40;;;;;;;1.80;1.70;;;15.10;96.40;;;;;;5068130;28;20401;-65
2023/05/15 09:46:11;;;;;;;2.40;2.17;;;15.20;97.00;;;;;;5105296;28;20561;-62
2023/05/15 09:48:37;;;;;;;3.35;1.73;;;15.20;99.30;;;;;;5072606;28;20039;-62
2023/05/15 09:51:06;;;;;;;3.08;1.60;;;15.10;99.90;;;;;;5087283;28;20040;-64
2023/05/15 09:53:32;;;;;;;2.70;1.70;;;15.00;99.20;;;;;;5105749;28;20146;-68
2023/05/15 09:55:58;;;;;;;3.75;1.75;;;14.90;98.00;;;;;;5084934;28;20154;-64
2023/05/15 09:58:23;;;;;;;5.32;1.70;;;15.00;97.50;;;;;;5082440;28;20438;-63
2023/05/15 10:00:49;;;;;;;2.25;1.73;;;15.10;99.90;;;;;;5105197;28;20047;-63
2023/05/15 10:03:18;;;;;;;2.13;1.70;;;15.10;94.00;;;;;;5087430;28;20047;-68
2023/05/15 10:05:44;;;;;;;4.15;1.83;;;14.90;97.90;;;;;;5099830;28;20070;-63
2023/05/15 10:08:11;;;;;;;3.80;1.98;;;15.10;99.90;;;;;;5090603;28;20048;-64
2023/05/15 10:10:37;;;;;;;3.67;1.63;;;15.10;98.00;;;;;;5102151;28;20556;-61
2023/05/15 10:13:04;;;;;;;3.78;1.73;;;15.20;96.50;;;;;;5106481;28;20067;-61
2023/05/15 10:15:31;;;;;;;2.78;1.80;;;15.40;99.30;;;;;;5088264;28;20397;-63
2023/05/15 10:17:57;;;;;;;1.88;1.70;;;15.50;97.50;;;;;;5092063;28;20116;-61
2023/05/15 10:20:24;;;;;;;4.18;1.77;;;15.40;95.00;;;;;;5094682;28;20108;-61
2023/05/15 10:22:52;;;;;;;3.63;2.00;;;15.20;97.70;;;;;;5058571;28;20044;-60
2023/05/15 10:25:49;;;;;;;3.17;1.92;;;15.10;98.30;;;;;;5089235;28;20083;-62
2023/05/15 10:28:17;;;;;;;3.65;2.08;;;14.90;97.00;;;;;;5046023;28;20117;-64
2023/05/15 10:30:44;;;;;;;3.53;1.67;;;14.60;99.40;;;;;;5071552;28;20044;-66
2023/05/15 10:33:12;;;;;;;2.22;1.73;;;14.60;99.90;;;;;;5091287;28;20189;-59
2023/05/15 10:35:39;;;;;;;1.85;1.70;;;14.80;99.90;;;;;;5090818;27;20105;-60
2023/05/15 10:38:05;;;;;;;2.13;1.77;;;14.80;99.50;;;;;;5098202;28;20083;-60
2023/05/15 10:40:35;;;;;;;4.18;2.15;;;14.90;99.90;;;;;;5090367;28;20044;-59
2023/05/15 10:43:02;;;;;;;8.20;1.73;;;14.90;99.90;;;;;;5090815;28;20043;-59
2023/05/15 10:45:29;;;;;;;2.05;1.88;;;14.90;99.90;;;;;;5108998;28;20054;-58
2023/05/15 10:47:56;;;;;;;5.53;1.80;;;15.10;99.90;;;;;;5074415;28;20122;-65
2023/05/15 10:50:22;;;;;;;2.80;1.83;;;15.10;99.90;;;;;;5091049;28;20103;-61
2023/05/15 10:52:51;;;;;;;2.90;1.83;;;15.10;96.80;;;;;;5057034;28;20036;-58
2023/05/15 10:55:17;;;;;;;3.35;1.77;;;14.90;99.90;;;;;;5109602;28;20094;-65
2023/05/15 10:57:46;;;;;;;2.00;1.77;;;14.60;98.80;;;;;;5117497;27;20074;-58
2023/05/15 11:00:32;;;;;;;4.88;1.60;;;14.60;99.90;;;;;;5090813;28;20122;-63
2023/05/15 11:02:59;;;;;;;2.20;2.00;;;14.60;99.90;;;;;;5107102;28;20448;-60
2023/05/15 11:05:25;;;;;;;2.00;1.80;;;14.50;99.90;;;;;;5107729;28;20504;-61
2023/05/15 11:08:24;;;;;;;2.53;2.00;;;14.60;99.90;;;;;;5091982;28;20509;-65
2023/05/15 11:10:51;;;;;;;2.05;1.75;;;14.60;99.90;;;;;;5090635;27;20105;-61
2023/05/15 11:13:17;;;;;;;1.80;1.70;;;14.60;99.90;;;;;;5129638;27;20046;-63
2023/05/15 11:15:44;;;;;;;2.15;1.80;;;14.60;99.90;;;;;;5109899;27;20085;-60
2023/05/15 11:18:11;;;;;;;4.82;1.83;;;14.60;99.90;;;;;;5097831;27;20146;-64
2023/05/15 11:20:42;;;;;;;3.45;1.60;;;14.70;99.90;;;;;;5115217;27;20055;-58
2023/05/15 11:23:08;;;;;;;3.13;1.95;;;14.70;99.90;;;;;;5105105;28;20118;-67
2023/05/15 11:25:35;;;;;;;2.13;1.58;;;14.80;99.90;;;;;;5089875;28;20066;-60
2023/05/15 11:28:03;;;;;;;2.63;1.60;;;14.90;99.90;;;;;;5089839;28;20042;-60
2023/05/15 11:30:37;;;;;;;1.88;1.33;;;14.90;99.90;;;;;;5098836;28;20112;-66
2023/05/15 11:33:08;;;;;;;2.60;1.35;;;14.90;99.90;;;;;;5089750;28;20040;-67
2023/05/15 11:35:45;;;;;;;2.60;1.48;;;14.70;99.90;;;;;;5107623;28;20386;-60
2023/05/15 11:38:14;;;;;;;1.35;1.35;;;14.60;99.90;;;;;;5108619;28;20047;-58
2023/05/15 11:40:46;;;;;;;2.97;1.50;;;14.60;99.90;;;;;;5097195;28;20047;-64
2023/05/15 11:43:24;;;;;;;3.45;1.20;;;14.50;99.90;;;;;;5106647;28;20028;-65
2023/05/15 11:45:54;;;;;;;7.18;1.58;;;14.50;99.90;;;;;;5089815;28;20063;-58
2023/05/15 11:48:21;;;;;;;2.08;1.38;;;14.60;99.90;;;;;;5107579;28;20043;-62
2023/05/15 11:50:48;;;;;;;2.65;1.70;;;14.70;99.90;;;;;;5089695;28;20047;-63
2023/05/15 11:53:15;;;;;;;2.85;1.55;;;14.80;99.90;;;;;;5089119;28;20051;-65
2023/05/15 11:55:42;;;;;;;3.70;1.38;;;15.00;99.90;;;;;;5107469;28;20051;-61
2023/05/15 11:58:17;;;;;;;2.33;1.55;;;15.00;99.90;;;;;;5071761;28;20059;-64
2023/05/15 12:00:45;;;;;;;2.72;1.50;;;14.90;99.90;;;;;;5093731;28;20051;-64
2023/05/15 12:03:26;;;;;;;1.95;1.55;;;14.90;99.90;;;;;;5072717;28;20054;-67
2023/05/15 12:05:53;;;;;;;1.30;1.20;;;14.80;99.90;;;;;;5076404;28;20050;-62
2023/05/15 12:08:22;;;;;;;2.13;1.77;;;14.70;99.90;;;;;;5088519;28;20124;-69
2023/05/15 12:10:48;;;;;;;3.55;2.17;;;14.50;93.20;;;;;;5113831;27;20047;-63
2023/05/15 12:13:16;;;;;;;1.90;1.80;;;14.40;97.30;;;;;;5053040;28;20051;-62
2023/05/15 12:15:44;;;;;;;2.00;1.83;;;14.50;99.90;;;;;;5103702;28;20045;-62
2023/05/15 12:18:10;;;;;;;3.40;2.40;;;14.60;97.20;;;;;;5088879;28;20048;-66
2023/05/15 12:20:39;;;;;;;3.78;2.00;;;14.70;98.20;;;;;;5073006;28;20063;-61
2023/05/15 12:23:07;;;;;;;2.55;2.15;;;14.70;92.10;;;;;;5106358;28;20108;-64
2023/05/15 12:25:34;;;;;;;2.67;1.77;;;14.80;99.90;;;;;;5106697;28;20387;-70
2023/05/15 12:28:03;;;;;;;3.15;2.30;;;15.00;98.50;;;;;;5106627;28;20048;-67
2023/05/15 12:30:33;;;;;;;3.40;1.90;;;15.00;96.50;;;;;;5089272;28;20051;-64
2023/05/15 12:33:04;;;;;;;2.80;1.92;;;15.10;96.30;;;;;;5078503;28;20517;-59
2023/05/15 12:35:40;;;;;;;1.90;1.80;;;15.00;97.30;;;;;;5088630;28;20043;-67
2023/05/15 12:38:06;;;;;;;2.58;1.75;;;15.00;97.20;;;;;;5072458;28;20055;-66
2023/05/15 12:40:34;;;;;;;1.90;1.70;;;15.10;98.50;;;;;;5071481;28;20047;-63